createdAt,value
2023-03-21T00:02:24.155Z,54.26
2023-03-21T00:04:54.935Z,53.88
2023-03-21T00:07:22.814Z,54.11
2023-03-21T00:09:50.471Z,53.98
2023-03-21T00:12:21.082Z,54.24
2023-03-21T00:14:48.799Z,54.32
2023-03-21T00:17:16.984Z,54.24
2023-03-21T00:19:46.313Z,53.73
2023-03-21T00:22:13.992Z,53.86
2023-03-21T00:24:41.816Z,54.16
2023-03-21T00:27:41.394Z,54.79
2023-03-21T00:29:58.528Z,54.80
2023-03-21T00:32:26.457Z,54.54
2023-03-21T00:35:11.751Z,54.51
2023-03-21T00:37:42.228Z,54.58
2023-03-21T00:40:23.125Z,54.42
2023-03-21T00:42:53.427Z,54.65
2023-03-21T00:45:22.965Z,55.24
2023-03-21T00:47:50.937Z,55.19
2023-03-21T00:50:19.068Z,55.13
2023-03-21T00:52:46.806Z,55.10
2023-03-21T00:55:16.038Z,55.25
2023-03-21T00:57:47.525Z,55.34
2023-03-21T01:00:19.013Z,55.42
2023-03-21T01:03:14.171Z,55.40
2023-03-21T01:06:05.750Z,55.67
2023-03-21T01:08:48.437Z,55.78
2023-03-21T01:11:21.324Z,55.95
2023-03-21T01:14:07.229Z,56.21
2023-03-21T01:16:37.262Z,56.21
2023-03-21T01:19:14.918Z,56.15
2023-03-21T01:21:49.971Z,55.87
2023-03-21T01:24:17.661Z,55.96
2023-03-21T01:26:45.394Z,56.37
2023-03-21T01:29:13.101Z,56.18
2023-03-21T01:31:41.033Z,56.61
2023-03-21T01:34:10.035Z,56.67
2023-03-21T01:36:37.864Z,56.94
2023-03-21T01:39:07.180Z,57.13
2023-03-21T01:41:43.418Z,57.55
2023-03-21T01:44:16.313Z,57.83
2023-03-21T01:46:57.043Z,58.14
2023-03-21T01:49:38.705Z,57.75
2023-03-21T01:52:15.274Z,57.87
2023-03-21T01:54:48.869Z,57.69
2023-03-21T01:57:22.014Z,57.79
2023-03-21T01:59:52.568Z,57.78
2023-03-21T02:02:23.300Z,57.71
2023-03-21T02:04:56.242Z,57.88
2023-03-21T02:07:28.825Z,57.89
2023-03-21T02:09:59.146Z,58.00
2023-03-21T02:12:27.704Z,57.53
2023-03-21T02:14:56.701Z,57.90
2023-03-21T02:17:32.450Z,58.37
2023-03-21T02:20:51.079Z,58.53
2023-03-21T02:23:47.474Z,58.34
2023-03-21T02:27:04.825Z,58.99
2023-03-21T02:30:30.344Z,58.94
2023-03-21T02:33:37.238Z,58.78
2023-03-21T02:36:19.006Z,58.81
2023-03-21T02:38:56.154Z,58.22
2023-03-21T02:41:40.068Z,58.34
2023-03-21T02:44:14.979Z,58.19
2023-03-21T02:46:56.303Z,58.10
2023-03-21T02:49:32.200Z,58.24
2023-03-21T02:52:12.196Z,58.43
2023-03-21T02:54:48.320Z,58.70
2023-03-21T02:57:20.243Z,58.76
2023-03-21T02:59:55.533Z,58.73
2023-03-21T03:02:29.271Z,59.02
2023-03-21T03:04:58.783Z,58.97
2023-03-21T03:07:47.473Z,59.33
2023-03-21T03:10:41.319Z,59.37
2023-03-21T03:13:22.182Z,59.80
2023-03-21T03:16:02.031Z,60.35
2023-03-21T03:18:41.701Z,60.52
2023-03-21T03:21:14.881Z,60.87
2023-03-21T03:23:46.561Z,60.71
2023-03-21T03:26:18.770Z,60.45
2023-03-21T03:28:50.271Z,60.01
2023-03-21T03:31:26.059Z,60.07
2023-03-21T03:33:57.008Z,59.95
2023-03-21T03:36:32.443Z,59.82
2023-03-21T03:39:04.423Z,59.91
2023-03-21T03:42:04.269Z,60.16
2023-03-21T03:44:30.223Z,60.10
2023-03-21T03:47:00.947Z,60.14
2023-03-21T03:49:32.798Z,60.23
2023-03-21T03:52:05.409Z,60.25
2023-03-21T03:54:38.317Z,60.02
2023-03-21T03:57:08.813Z,60.08
2023-03-21T03:59:37.214Z,60.15
2023-03-21T04:02:06.751Z,60.27
2023-03-21T04:04:35.079Z,60.46
2023-03-21T04:07:03.555Z,60.54
2023-03-21T04:09:43.560Z,60.52
2023-03-21T04:12:13.826Z,60.66
2023-03-21T04:14:46.955Z,60.77
2023-03-21T04:17:15.799Z,61.10
2023-03-21T04:19:43.631Z,60.68
2023-03-21T04:22:12.354Z,60.42
2023-03-21T04:24:40.229Z,60.63
2023-03-21T04:27:08.195Z,60.90
2023-03-21T04:29:37.281Z,60.97
2023-03-21T04:32:06.220Z,61.00
2023-03-21T04:34:33.907Z,61.25
2023-03-21T04:37:01.516Z,61.46
2023-03-21T04:39:29.145Z,61.62
2023-03-21T04:41:57.410Z,61.68
2023-03-21T04:44:25.030Z,62.02
2023-03-21T04:46:54.046Z,62.29
2023-03-21T04:49:21.771Z,61.53
2023-03-21T04:51:49.553Z,61.63
2023-03-21T04:54:17.253Z,61.76
2023-03-21T04:56:45.148Z,61.74
2023-03-21T04:59:15.567Z,61.30
2023-03-21T05:01:43.752Z,61.23
2023-03-21T05:04:14.746Z,61.48
2023-03-21T05:06:43.970Z,61.76
2023-03-21T05:09:12.282Z,61.65
2023-03-21T05:11:41.863Z,61.58
2023-03-21T05:14:11.981Z,61.29
2023-03-21T05:16:48.367Z,60.96
2023-03-21T05:19:18.562Z,60.98
2023-03-21T05:21:46.319Z,61.57
2023-03-21T05:24:16.772Z,61.77
2023-03-21T05:26:50.249Z,61.60
2023-03-21T05:29:19.445Z,61.51
2023-03-21T05:31:47.475Z,61.86
2023-03-21T05:34:15.764Z,61.97
2023-03-21T05:36:44.771Z,62.15
2023-03-21T05:39:12.596Z,62.10
2023-03-21T05:41:40.262Z,62.05
2023-03-21T05:44:08.029Z,62.15
2023-03-21T05:46:35.868Z,61.69
2023-03-21T05:49:03.632Z,62.00
2023-03-21T05:51:31.627Z,62.16
2023-03-21T05:54:00.820Z,61.85
2023-03-21T05:56:28.495Z,61.56
2023-03-21T05:58:56.373Z,61.60
2023-03-21T06:01:24.048Z,61.95
2023-03-21T06:03:51.833Z,61.77
2023-03-21T06:06:19.752Z,61.23
2023-03-21T06:08:48.778Z,61.12
2023-03-21T06:11:24.530Z,61.18
2023-03-21T06:13:52.259Z,61.30
2023-03-21T06:16:20.018Z,61.57
2023-03-21T06:18:48.064Z,61.55
2023-03-21T06:21:16.162Z,61.43
2023-03-21T06:23:43.909Z,61.34
2023-03-21T06:26:11.685Z,61.35
2023-03-21T06:28:40.853Z,60.84
2023-03-21T06:31:08.951Z,60.75
2023-03-21T06:33:36.676Z,61.38
2023-03-21T06:36:04.772Z,61.17
2023-03-21T06:38:32.726Z,61.09
2023-03-21T06:41:00.581Z,60.61
2023-03-21T06:43:28.246Z,60.75
2023-03-21T06:45:57.294Z,60.42
2023-03-21T06:48:25.116Z,60.47
2023-03-21T06:50:53.821Z,59.78
2023-03-21T06:53:24.945Z,59.63
2023-03-21T06:55:52.824Z,60.09
2023-03-21T06:58:21.594Z,60.36
2023-03-21T07:00:49.345Z,59.96
2023-03-21T07:03:19.171Z,60.25
2023-03-21T07:05:46.917Z,60.39
2023-03-21T07:08:14.588Z,60.42
2023-03-21T07:10:45.342Z,60.62
2023-03-21T07:13:13.964Z,60.25
2023-03-21T07:15:42.188Z,59.74
2023-03-21T07:18:10.664Z,59.60
2023-03-21T07:20:39.694Z,58.69
2023-03-21T07:23:07.548Z,58.90
2023-03-21T07:25:35.889Z,58.68
2023-03-21T07:28:03.689Z,59.28
2023-03-21T07:30:31.643Z,59.16
2023-03-21T07:32:59.784Z,58.72
2023-03-21T07:35:27.792Z,58.91
2023-03-21T07:37:56.883Z,58.28
2023-03-21T07:40:24.579Z,57.96
2023-03-21T07:42:52.432Z,57.06
2023-03-21T07:45:22.059Z,56.96
2023-03-21T07:47:49.810Z,56.70
2023-03-21T07:50:17.886Z,56.51
2023-03-21T07:52:46.215Z,56.05
2023-03-21T07:55:17.228Z,55.66
2023-03-21T07:57:44.959Z,54.92
2023-03-21T08:00:23.242Z,54.02
2023-03-21T08:02:57.853Z,54.13
2023-03-21T08:05:29.045Z,53.92
2023-03-21T08:07:57.032Z,53.19
2023-03-21T08:10:26.733Z,52.51
2023-03-21T08:12:54.840Z,51.89
2023-03-21T08:15:23.061Z,50.94
2023-03-21T08:17:51.147Z,50.81
2023-03-21T08:20:21.268Z,51.31
2023-03-21T08:22:49.996Z,51.47
2023-03-21T08:25:19.503Z,52.07
2023-03-21T08:27:49.585Z,52.85
2023-03-21T08:30:27.758Z,53.59
2023-03-21T08:33:00.876Z,53.63
2023-03-21T08:35:30.488Z,53.25
2023-03-21T08:37:58.366Z,52.41
2023-03-21T08:40:26.342Z,51.32
2023-03-21T08:42:55.864Z,51.13
2023-03-21T08:45:23.924Z,50.31
2023-03-21T08:47:53.552Z,49.67
2023-03-21T08:50:22.964Z,49.20
2023-03-21T08:52:50.986Z,48.34
2023-03-21T08:55:19.446Z,47.90
2023-03-21T08:57:47.095Z,48.15
2023-03-21T09:00:18.700Z,47.82
2023-03-21T09:02:48.573Z,47.99
2023-03-21T09:05:16.817Z,48.39
2023-03-21T09:07:45.417Z,48.40
2023-03-21T09:10:22.853Z,48.43
2023-03-21T09:12:52.721Z,48.25
2023-03-21T09:15:24.345Z,48.76
2023-03-21T09:17:54.338Z,48.25
2023-03-21T09:20:31.032Z,47.95
2023-03-21T09:23:01.565Z,47.78
2023-03-21T09:25:30.973Z,48.47
2023-03-21T09:27:58.963Z,47.74
2023-03-21T09:30:28.616Z,47.16
2023-03-21T09:32:56.920Z,46.97
2023-03-21T09:35:27.039Z,46.29
2023-03-21T09:37:58.926Z,46.47
2023-03-21T09:40:45.779Z,46.69
2023-03-21T09:43:24.192Z,47.15
2023-03-21T09:46:00.899Z,47.23
2023-03-21T09:48:46.993Z,47.22
2023-03-21T09:51:24.184Z,46.57
2023-03-21T09:53:54.100Z,46.74
2023-03-21T09:56:24.383Z,47.46
2023-03-21T09:58:55.461Z,47.72
2023-03-21T10:01:29.946Z,47.61
2023-03-21T10:04:01.251Z,47.74
2023-03-21T10:06:30.909Z,48.25
2023-03-21T10:09:01.385Z,48.81
2023-03-21T10:11:33.232Z,49.50
2023-03-21T10:14:05.732Z,49.38
2023-03-21T10:16:38.765Z,50.34
2023-03-21T10:19:13.212Z,50.66
2023-03-21T10:21:59.877Z,51.32
2023-03-21T10:24:30.450Z,51.49
2023-03-21T10:26:58.530Z,50.93
2023-03-21T10:29:30.518Z,50.95
2023-03-21T10:32:00.290Z,51.65
2023-03-21T10:34:32.694Z,51.25
2023-03-21T10:37:02.468Z,51.00
2023-03-21T10:39:35.680Z,50.49
2023-03-21T10:42:03.464Z,50.53
2023-03-21T10:44:33.439Z,51.60
2023-03-21T10:47:06.751Z,51.57
2023-03-21T10:49:40.648Z,51.17
2023-03-21T10:52:21.151Z,52.06
2023-03-21T10:54:49.561Z,51.52
2023-03-21T10:57:20.889Z,51.91
2023-03-21T10:59:54.566Z,52.44
2023-03-21T11:02:28.983Z,52.65
2023-03-21T11:04:58.708Z,53.51
2023-03-21T11:07:31.536Z,53.34
2023-03-21T11:10:01.245Z,52.64
2023-03-21T11:12:37.199Z,53.18
2023-03-21T11:15:28.731Z,53.78
2023-03-21T11:17:58.592Z,53.41
2023-03-21T11:20:28.572Z,53.71
2023-03-21T11:22:57.030Z,53.59
2023-03-21T11:25:33.080Z,54.39
2023-03-21T11:28:07.687Z,52.85
2023-03-21T11:30:35.700Z,52.71
2023-03-21T11:33:07.606Z,53.11
2023-03-21T11:35:38.128Z,53.37
2023-03-21T11:38:07.573Z,52.78
2023-03-21T11:40:36.464Z,52.75
2023-03-21T11:43:05.971Z,52.33
2023-03-21T11:45:35.620Z,52.93
2023-03-21T11:48:14.064Z,53.36
2023-03-21T11:50:44.460Z,53.57
2023-03-21T11:53:27.026Z,52.67
2023-03-21T11:56:11.419Z,53.16
2023-03-21T11:58:53.961Z,51.97
2023-03-21T12:01:28.975Z,51.78
2023-03-21T12:04:04.307Z,51.19
2023-03-21T12:06:38.292Z,50.46
2023-03-21T12:09:30.441Z,50.10
2023-03-21T12:12:10.422Z,49.69
2023-03-21T12:14:48.574Z,50.22
2023-03-21T12:17:31.275Z,49.95
2023-03-21T12:20:12.697Z,50.42
2023-03-21T12:22:51.430Z,50.47
2023-03-21T12:25:27.921Z,50.44
2023-03-21T12:28:07.303Z,51.06
2023-03-21T12:30:46.194Z,50.98
2023-03-21T12:33:24.855Z,51.62
2023-03-21T12:36:09.556Z,50.19
2023-03-21T12:38:42.600Z,50.22
2023-03-21T12:41:23.144Z,50.47
2023-03-21T12:43:57.575Z,50.93
2023-03-21T12:46:30.465Z,51.21
2023-03-21T12:49:02.681Z,50.76
2023-03-21T12:51:36.138Z,50.62
2023-03-21T12:54:14.112Z,49.91
2023-03-21T12:56:51.284Z,50.49
2023-03-21T12:59:26.404Z,51.36
2023-03-21T13:01:57.230Z,50.59
2023-03-21T13:04:36.708Z,50.59
2023-03-21T13:07:11.619Z,52.13
2023-03-21T13:09:41.316Z,52.39
2023-03-21T13:12:29.915Z,52.59
2023-03-21T13:15:18.293Z,54.32
2023-03-21T13:17:58.110Z,55.20
2023-03-21T13:20:31.631Z,57.03
2023-03-21T13:23:00.735Z,58.95
2023-03-21T13:25:33.241Z,60.67
2023-03-21T13:28:04.821Z,62.32
2023-03-21T13:30:33.396Z,61.61
2023-03-21T13:33:07.438Z,61.18
2023-03-21T13:35:38.417Z,62.25
2023-03-21T13:38:12.933Z,65.92
2023-03-21T13:40:46.032Z,68.50
2023-03-21T13:43:43.474Z,69.35
2023-03-21T13:46:12.642Z,69.16
2023-03-21T13:48:57.746Z,69.47
2023-03-21T13:51:45.184Z,69.03
2023-03-21T13:54:27.445Z,67.06
2023-03-21T13:57:01.038Z,66.55
2023-03-21T13:59:42.348Z,67.24
2023-03-21T14:02:32.975Z,68.15
2023-03-21T14:05:06.449Z,68.08
2023-03-21T14:07:36.844Z,67.99
2023-03-21T14:10:10.194Z,69.02
2023-03-21T14:12:41.984Z,70.51
2023-03-21T14:15:18.953Z,73.00
2023-03-21T14:17:55.181Z,73.64
2023-03-21T14:20:26.412Z,72.63
2023-03-21T14:22:54.572Z,72.97
2023-03-21T14:25:31.292Z,75.32
2023-03-21T14:28:03.817Z,75.98
2023-03-21T14:30:34.890Z,75.48
2023-03-21T14:33:06.833Z,75.46
2023-03-21T14:35:34.746Z,76.32
2023-03-21T14:38:04.802Z,77.10
2023-03-21T14:40:34.088Z,76.22
2023-03-21T14:43:05.753Z,73.91
2023-03-21T14:45:36.930Z,74.34
2023-03-21T14:48:08.983Z,72.56
2023-03-21T14:50:41.728Z,71.06
2023-03-21T14:53:15.543Z,70.80
2023-03-21T14:55:47.113Z,71.32
2023-03-21T14:58:18.996Z,70.68
2023-03-21T15:00:49.877Z,71.13
2023-03-21T15:03:19.366Z,71.59
2023-03-21T15:05:47.539Z,69.70
2023-03-21T15:08:17.816Z,68.77
2023-03-21T15:11:06.840Z,69.03
2023-03-21T15:13:37.749Z,69.93
2023-03-21T15:16:06.405Z,69.92
2023-03-21T15:18:37.620Z,69.60
2023-03-21T15:21:09.689Z,67.72
2023-03-21T15:23:41.179Z,69.25
2023-03-21T15:26:15.864Z,69.11
2023-03-21T15:28:46.193Z,67.45
2023-03-21T15:31:17.936Z,68.48
2023-03-21T15:33:47.996Z,70.07
2023-03-21T15:36:20.964Z,71.13
2023-03-21T15:38:49.819Z,71.09
2023-03-21T15:41:27.918Z,69.84
2023-03-21T15:44:02.685Z,69.99
2023-03-21T15:46:39.894Z,70.72
2023-03-21T15:49:09.228Z,70.38
2023-03-21T15:51:37.077Z,70.63
2023-03-21T15:54:06.832Z,70.92
2023-03-21T15:56:37.148Z,71.20
2023-03-21T15:59:05.680Z,71.13
2023-03-21T16:01:38.867Z,69.89
2023-03-21T16:04:10.097Z,70.86
2023-03-21T16:06:39.585Z,71.38
2023-03-21T16:09:14.017Z,71.94
2023-03-21T16:11:44.928Z,73.21
2023-03-21T16:14:13.080Z,73.24
2023-03-21T16:16:40.843Z,72.71
2023-03-21T16:19:08.688Z,71.74
2023-03-21T16:21:38.300Z,71.99
2023-03-21T16:24:06.796Z,72.29
2023-03-21T16:26:38.364Z,72.54
2023-03-21T16:29:08.538Z,72.30
2023-03-21T16:31:37.254Z,72.33
2023-03-21T16:34:05.815Z,72.99
2023-03-21T16:36:36.562Z,72.93
2023-03-21T16:39:17.808Z,73.91
2023-03-21T16:41:45.731Z,73.68
2023-03-21T16:44:15.051Z,74.62
2023-03-21T16:46:42.681Z,74.33
2023-03-21T16:49:19.415Z,74.20
2023-03-21T16:51:47.248Z,73.42
2023-03-21T16:54:15.004Z,73.61
2023-03-21T16:56:46.029Z,73.64
2023-03-21T16:59:15.720Z,74.11
2023-03-21T17:01:46.105Z,74.20
2023-03-21T17:04:14.749Z,74.75
2023-03-21T17:06:45.884Z,74.46
2023-03-21T17:09:15.389Z,75.52
2023-03-21T17:11:43.520Z,75.73
2023-03-21T17:14:12.822Z,75.60
2023-03-21T17:16:43.109Z,75.89
2023-03-21T17:19:15.731Z,75.64
2023-03-21T17:21:43.536Z,76.61
2023-03-21T17:24:11.242Z,76.52
2023-03-21T17:26:38.947Z,76.34
2023-03-21T17:29:07.299Z,76.56
2023-03-21T17:31:36.766Z,76.48
2023-03-21T17:34:06.102Z,76.25
2023-03-21T17:36:36.227Z,75.96
2023-03-21T17:39:05.817Z,75.59
2023-03-21T17:41:33.837Z,75.45
2023-03-21T17:44:01.754Z,75.80
2023-03-21T17:46:30.738Z,75.53
2023-03-21T17:48:58.362Z,74.54
2023-03-21T17:51:30.099Z,74.35
2023-03-21T17:53:57.938Z,74.56
2023-03-21T17:56:27.544Z,75.41
2023-03-21T17:58:55.706Z,76.05
2023-03-21T18:01:24.179Z,75.99
2023-03-21T18:03:53.705Z,75.46
2023-03-21T18:06:23.727Z,75.83
2023-03-21T18:08:53.684Z,76.27
2023-03-21T18:11:23.044Z,75.75
2023-03-21T18:13:51.117Z,75.54
2023-03-21T18:16:21.880Z,75.42
2023-03-21T18:18:50.934Z,75.87
2023-03-21T18:21:20.541Z,77.06
2023-03-21T18:23:52.083Z,77.31
2023-03-21T18:26:23.975Z,78.00
2023-03-21T18:29:43.856Z,78.52
2023-03-21T18:31:40.396Z,78.74
2023-03-21T18:34:08.595Z,79.12
2023-03-21T18:36:36.992Z,80.01
2023-03-21T18:39:06.862Z,80.46
2023-03-21T18:41:35.013Z,79.48
2023-03-21T18:44:15.036Z,80.00
2023-03-21T18:46:48.159Z,79.23
2023-03-21T18:52:05.274Z,78.72
2023-03-21T18:54:35.566Z,78.58
2023-03-21T18:59:50.993Z,79.35
2023-03-21T19:02:18.732Z,79.50
2023-03-21T19:04:46.465Z,79.36
2023-03-21T19:07:14.471Z,80.08
2023-03-21T19:10:05.220Z,80.74
2023-03-21T19:12:31.688Z,80.11
2023-03-21T19:14:59.418Z,80.35
2023-03-21T19:18:21.822Z,80.81
2023-03-21T19:20:16.447Z,80.73
2023-03-21T19:22:44.564Z,80.82
2023-03-21T19:25:15.514Z,80.87
2023-03-21T19:27:43.543Z,81.72
2023-03-21T19:30:15.643Z,82.18
2023-03-21T19:32:44.236Z,81.83
2023-03-21T19:35:13.225Z,81.39
2023-03-21T19:37:41.776Z,81.96
2023-03-21T19:40:10.693Z,81.11
2023-03-21T19:42:40.525Z,81.28
2023-03-21T19:45:09.727Z,82.19
2023-03-21T19:47:40.087Z,82.54
2023-03-21T19:50:47.363Z,82.87
2023-03-21T19:52:57.038Z,82.32
2023-03-21T19:55:25.415Z,81.01
2023-03-21T19:57:54.544Z,80.52
2023-03-21T20:00:23.015Z,79.83
2023-03-21T20:02:51.645Z,79.79
2023-03-21T20:05:20.754Z,80.91
2023-03-21T20:07:48.711Z,81.96
2023-03-21T20:10:16.740Z,82.26
2023-03-21T20:12:44.399Z,82.29
2023-03-21T20:15:19.307Z,82.16
2023-03-21T20:17:49.176Z,82.40
2023-03-21T20:20:18.183Z,81.98
2023-03-21T20:23:07.528Z,81.18
2023-03-21T20:25:36.144Z,81.06
2023-03-21T20:28:15.707Z,80.58
2023-03-21T20:30:49.878Z,80.96
2023-03-21T20:33:18.051Z,80.82
2023-03-21T20:36:29.453Z,81.28
2023-03-21T20:38:34.616Z,81.74
2023-03-21T20:41:04.594Z,81.76
2023-03-21T20:46:22.457Z,82.77
2023-03-21T20:48:50.596Z,82.91
2023-03-21T20:52:26.907Z,82.90
2023-03-21T20:54:07.356Z,83.39
2023-03-21T20:56:35.623Z,82.68
2023-03-21T20:59:15.714Z,82.84
2023-03-21T21:01:47.161Z,82.76
2023-03-21T21:04:19.819Z,82.98
2023-03-21T21:06:48.194Z,83.43
2023-03-21T21:09:15.969Z,83.17
2023-03-21T21:12:07.026Z,82.28
2023-03-21T21:14:31.314Z,82.78
2023-03-21T21:17:15.491Z,83.20
2023-03-21T21:19:50.756Z,82.34
2023-03-21T21:22:18.762Z,82.89
2023-03-21T21:24:46.415Z,82.51
2023-03-21T21:27:14.770Z,82.37
2023-03-21T21:29:43.728Z,82.86
2023-03-21T21:32:12.700Z,83.15
2023-03-21T21:34:41.067Z,83.33
2023-03-21T21:37:09.418Z,83.44
2023-03-21T21:39:38.000Z,83.42
2023-03-21T21:42:06.446Z,83.12
2023-03-21T21:44:34.142Z,83.23
2023-03-21T21:47:04.147Z,82.27
2023-03-21T21:49:33.162Z,81.42
2023-03-21T21:52:03.921Z,81.07
2023-03-21T21:54:33.925Z,80.93
2023-03-21T21:57:01.896Z,80.75
2023-03-21T21:59:29.964Z,81.11
2023-03-21T22:01:58.549Z,81.59
2023-03-21T22:04:27.788Z,81.83
2023-03-21T22:06:57.033Z,81.61
2023-03-21T22:09:24.784Z,81.57
2023-03-21T22:11:52.448Z,80.57
2023-03-21T22:14:20.123Z,79.52
2023-03-21T22:16:47.842Z,79.12
2023-03-21T22:19:15.601Z,78.60
2023-03-21T22:21:43.521Z,78.57
2023-03-21T22:24:12.590Z,78.66
2023-03-21T22:26:40.457Z,79.32
2023-03-21T22:29:09.988Z,78.89
2023-03-21T22:31:38.775Z,79.34
2023-03-21T22:34:06.502Z,79.75
2023-03-21T22:36:34.462Z,80.06
2023-03-21T22:39:02.252Z,79.16
2023-03-21T22:41:31.256Z,77.53
2023-03-21T22:43:58.881Z,77.25
2023-03-21T22:46:27.582Z,76.35
2023-03-21T22:48:55.365Z,76.06
2023-03-21T22:51:23.041Z,75.82
2023-03-21T22:53:50.728Z,75.22
2023-03-21T22:56:18.428Z,76.00
2023-03-21T22:58:47.420Z,76.37
2023-03-21T23:01:15.444Z,75.98
2023-03-21T23:03:43.176Z,76.13
2023-03-21T23:06:10.830Z,76.81
2023-03-21T23:08:38.529Z,76.59
2023-03-21T23:11:07.459Z,76.25
2023-03-21T23:13:36.680Z,76.59
2023-03-21T23:16:09.247Z,76.64
2023-03-21T23:18:38.546Z,76.64
2023-03-21T23:21:12.974Z,77.06
2023-03-21T23:23:43.837Z,76.81
2023-03-21T23:26:12.244Z,76.92
2023-03-21T23:28:39.892Z,76.63
2023-03-21T23:31:10.718Z,75.46
2023-03-21T23:33:38.741Z,75.00
2023-03-21T23:36:07.885Z,73.61
2023-03-21T23:38:35.567Z,73.34
2023-03-21T23:41:07.997Z,73.51
2023-03-21T23:43:35.753Z,72.95
2023-03-21T23:46:03.469Z,72.51
2023-03-21T23:48:33.324Z,72.41
2023-03-21T23:51:01.429Z,72.13
2023-03-21T23:53:29.071Z,71.92
2023-03-21T23:55:58.398Z,72.22
2023-03-21T23:58:27.954Z,72.33
